Gulkana Airport Gulkana US
ICAO: PAGK
IATA:
Category: Medium
Scheduled Services:

Elevation: 1586 ft
TransAlt. 18000 ft.

Airport Communications:
ASOS:134.85
ANCHORAGE CNTR:119.5
CTAF:122.9
KENAI RDO:122.2
TWEB:115.6

PAGK Zoom In..

If you have problems with the map follow the link
https://www.worldairports.se/pages/airport.php?
ICAO=PAGK

Runways:

(A) RW 15 length 5001 ft width 100 ft
---- / hdg 148

(B) RW 33 length 5001 ft width 100 ft
---- / hdg 328

Location; PAGK
Day. 14 / Time. 20.53 Zulu
* Altimeter: 29.30
* Temperature: -19° c. 2.2°f.
* Wind from: 320° Speed 05 kn.
Dewpoint: -22° c.
Visibility: 10 Statute Miles.
Clouds: Clear (automated report).

PAGK 142053Z AUTO 32005KT 10SM CLR M19/M22 A2930 RMK AO2 SLP992 T11941217 50005 TSNO


Wind From 320°
Speed 05 kn.

 
 
jpsmedia.com for Web Design worldairports.se 2018   terms of use